Aviation Digital Data Service (ADDS)

Output produced by METARs form (1347 UTC 20 November 2017)
found at http://aviationweather.gov/adds/metars/
 
KDFW 201120Z 2012/2118 17006KT P6SM BKN300 
     FM201700 18014KT P6SM SCT300